sensor_id;sensor_type;location;lat;lon;timestamp;pressure;altitude;pressure_sealevel;temperature;humidity
13420;BME280;6781;58.440;15.470;2024-01-30T00:01:01;104084.28;;;3.61;100.00
13420;BME280;6781;58.440;15.470;2024-01-30T00:03:27;104076.59;;;3.63;100.00
13420;BME280;6781;58.440;15.470;2024-01-30T00:05:55;104056.06;;;3.64;100.00
13420;BME280;6781;58.440;15.470;2024-01-30T00:08:21;104060.31;;;3.60;100.00
13420;BME280;6781;58.440;15.470;2024-01-30T00:10:48;104057.75;;;3.59;100.00
13420;BME280;6781;58.440;15.470;2024-01-30T00:13:17;104068.00;;;3.57;100.00
13420;BME280;6781;58.440;15.470;2024-01-30T00:15:45;104073.13;;;3.56;100.00
13420;BME280;6781;58.440;15.470;2024-01-30T00:18:12;104078.25;;;3.53;100.00
13420;BME280;6781;58.440;15.470;2024-01-30T00:20:39;104094.50;;;3.56;100.00
13420;BME280;6781;58.440;15.470;2024-01-30T00:23:06;104098.78;;;3.56;100.00
13420;BME280;6781;58.440;15.470;2024-01-30T00:25:32;104096.16;;;3.48;100.00
13420;BME280;6781;58.440;15.470;2024-01-30T00:27:59;104095.34;;;3.54;100.00
13420;BME280;6781;58.440;15.470;2024-01-30T00:30:28;104087.66;;;3.54;100.00
13420;BME280;6781;58.440;15.470;2024-01-30T00:32:55;104077.34;;;3.49;100.00
13420;BME280;6781;58.440;15.470;2024-01-30T00:35:21;104070.50;;;3.47;100.00
13420;BME280;6781;58.440;15.470;2024-01-30T00:37:48;104062.81;;;3.47;100.00
13420;BME280;6781;58.440;15.470;2024-01-30T00:40:15;104059.38;;;3.42;100.00
13420;BME280;6781;58.440;15.470;2024-01-30T00:42:43;104054.22;;;3.40;100.00
13420;BME280;6781;58.440;15.470;2024-01-30T00:45:11;104055.94;;;3.40;100.00
13420;BME280;6781;58.440;15.470;2024-01-30T00:47:40;104059.34;;;3.39;100.00
13420;BME280;6781;58.440;15.470;2024-01-30T00:50:06;104062.78;;;3.41;100.00
13420;BME280;6781;58.440;15.470;2024-01-30T00:52:33;104055.09;;;3.42;100.00
13420;BME280;6781;58.440;15.470;2024-01-30T00:55:00;104045.69;;;3.43;100.00
13420;BME280;6781;58.440;15.470;2024-01-30T00:57:27;104061.94;;;3.42;100.00
13420;BME280;6781;58.440;15.470;2024-01-30T00:59:55;104046.56;;;3.45;100.00
13420;BME280;6781;58.440;15.470;2024-01-30T01:02:21;104040.56;;;3.44;100.00
13420;BME280;6781;58.440;15.470;2024-01-30T01:04:50;104022.63;;;3.44;100.00
13420;BME280;6781;58.440;15.470;2024-01-30T01:07:17;104028.59;;;3.43;100.00
13420;BME280;6781;58.440;15.470;2024-01-30T01:09:44;104056.81;;;3.43;100.00
13420;BME280;6781;58.440;15.470;2024-01-30T01:12:11;104079.91;;;3.42;100.00
13420;BME280;6781;58.440;15.470;2024-01-30T01:14:37;104074.72;;;3.36;100.00
13420;BME280;6781;58.440;15.470;2024-01-30T01:17:04;104101.22;;;3.33;100.00
13420;BME280;6781;58.440;15.470;2024-01-30T01:19:31;104119.19;;;3.35;100.00
13420;BME280;6781;58.440;15.470;2024-01-30T01:21:59;104124.28;;;3.32;100.00
13420;BME280;6781;58.440;15.470;2024-01-30T01:24:26;104143.13;;;3.34;100.00
13420;BME280;6781;58.440;15.470;2024-01-30T01:26:53;104156.78;;;3.33;100.00
13420;BME280;6781;58.440;15.470;2024-01-30T01:29:19;104175.63;;;3.36;100.00
13420;BME280;6781;58.440;15.470;2024-01-30T01:31:53;104187.59;;;3.36;100.00
13420;BME280;6781;58.440;15.470;2024-01-30T01:34:21;104200.44;;;3.36;100.00
13420;BME280;6781;58.440;15.470;2024-01-30T01:36:47;104203.00;;;3.36;100.00
13420;BME280;6781;58.440;15.470;2024-01-30T01:39:16;104208.97;;;3.36;100.00
13420;BME280;6781;58.440;15.470;2024-01-30T01:41:43;104213.28;;;3.39;100.00
13420;BME280;6781;58.440;15.470;2024-01-30T01:44:10;104214.13;;;3.36;100.00
13420;BME280;6781;58.440;15.470;2024-01-30T01:46:37;104216.69;;;3.38;100.00
13420;BME280;6781;58.440;15.470;2024-01-30T01:49:04;104230.41;;;3.40;100.00
13420;BME280;6781;58.440;15.470;2024-01-30T01:51:31;104229.53;;;3.39;100.00
13420;BME280;6781;58.440;15.470;2024-01-30T01:53:58;104241.47;;;3.36;100.00
13420;BME280;6781;58.440;15.470;2024-01-30T01:56:28;104256.84;;;3.33;100.00
13420;BME280;6781;58.440;15.470;2024-01-30T01:58:55;104262.84;;;3.35;100.00
13420;BME280;6781;58.440;15.470;2024-01-30T02:01:25;104269.69;;;3.36;100.00
13420;BME280;6781;58.440;15.470;2024-01-30T02:03:53;104257.75;;;3.38;100.00
13420;BME280;6781;58.440;15.470;2024-01-30T02:06:20;104245.75;;;3.37;100.00
13420;BME280;6781;58.440;15.470;2024-01-30T02:08:47;104239.69;;;3.30;100.00
13420;BME280;6781;58.440;15.470;2024-01-30T02:11:14;104246.53;;;3.30;100.00
13420;BME280;6781;58.440;15.470;2024-01-30T02:13:43;104247.41;;;3.32;100.00
13420;BME280;6781;58.440;15.470;2024-01-30T02:16:10;104252.53;;;3.32;100.00
13420;BME280;6781;58.440;15.470;2024-01-30T02:18:36;104245.72;;;3.34;100.00
13420;BME280;6781;58.440;15.470;2024-01-30T02:21:10;104238.88;;;3.31;100.00
13420;BME280;6781;58.440;15.470;2024-01-30T02:23:36;104240.56;;;3.31;100.00
13420;BME280;6781;58.440;15.470;2024-01-30T02:26:04;104230.28;;;3.29;100.00
13420;BME280;6781;58.440;15.470;2024-01-30T02:28:30;104226.03;;;3.30;100.00
13420;BME280;6781;58.440;15.470;2024-01-30T02:30:57;104237.16;;;3.32;100.00
13420;BME280;6781;58.440;15.470;2024-01-30T02:33:23;104247.44;;;3.35;100.00
13420;BME280;6781;58.440;15.470;2024-01-30T02:35:50;104250.84;;;3.32;100.00
13420;BME280;6781;58.440;15.470;2024-01-30T02:38:18;104247.44;;;3.33;100.00
13420;BME280;6781;58.440;15.470;2024-01-30T02:40:45;104243.16;;;3.32;100.00
13420;BME280;6781;58.440;15.470;2024-01-30T02:43:12;104243.19;;;3.35;100.00
13420;BME280;6781;58.440;15.470;2024-01-30T02:45:39;104238.06;;;3.35;100.00
13420;BME280;6781;58.440;15.470;2024-01-30T02:48:06;104231.22;;;3.36;100.00
13420;BME280;6781;58.440;15.470;2024-01-30T02:50:32;104221.81;;;3.36;100.00
13420;BME280;6781;58.440;15.470;2024-01-30T02:52:59;104209.00;;;3.38;100.00
13420;BME280;6781;58.440;15.470;2024-01-30T02:55:28;104187.56;;;3.33;100.00
13420;BME280;6781;58.440;15.470;2024-01-30T02:57:54;104156.69;;;3.23;100.00
13420;BME280;6781;58.440;15.470;2024-01-30T03:00:21;104161.78;;;3.17;100.00
13420;BME280;6781;58.440;15.470;2024-01-30T03:05:23;104203.75;;;3.25;100.00
13420;BME280;6781;58.440;15.470;2024-01-30T03:07:51;104214.88;;;3.28;100.00
13420;BME280;6781;58.440;15.470;2024-01-30T03:10:18;104215.75;;;3.28;100.00
13420;BME280;6781;58.440;15.470;2024-01-30T03:12:46;104214.88;;;3.28;100.00
13420;BME280;6781;58.440;15.470;2024-01-30T03:15:13;104221.72;;;3.29;100.00
13420;BME280;6781;58.440;15.470;2024-01-30T03:17:40;104220.88;;;3.28;100.00
13420;BME280;6781;58.440;15.470;2024-01-30T03:20:07;104220.88;;;3.30;100.00
13420;BME280;6781;58.440;15.470;2024-01-30T03:22:34;104214.06;;;3.32;100.00
13420;BME280;6781;58.440;15.470;2024-01-30T03:25:01;104211.50;;;3.32;100.00
13420;BME280;6781;58.440;15.470;2024-01-30T03:27:28;104208.06;;;3.30;100.00
13420;BME280;6781;58.440;15.470;2024-01-30T03:29:56;104203.78;;;3.29;100.00
13420;BME280;6781;58.440;15.470;2024-01-30T03:32:23;104200.34;;;3.28;100.00
13420;BME280;6781;58.440;15.470;2024-01-30T03:34:50;104202.06;;;3.28;100.00
13420;BME280;6781;58.440;15.470;2024-01-30T03:37:17;104204.66;;;3.31;100.00
13420;BME280;6781;58.440;15.470;2024-01-30T03:39:43;104206.34;;;3.30;100.00
13420;BME280;6781;58.440;15.470;2024-01-30T03:42:10;104201.25;;;3.32;100.00
13420;BME280;6781;58.440;15.470;2024-01-30T03:44:37;104188.38;;;3.29;100.00
13420;BME280;6781;58.440;15.470;2024-01-30T03:47:05;104182.41;;;3.30;100.00
13420;BME280;6781;58.440;15.470;2024-01-30T03:49:32;104175.56;;;3.29;100.00
13420;BME280;6781;58.440;15.470;2024-01-30T03:51:59;104180.69;;;3.29;100.00
13420;BME280;6781;58.440;15.470;2024-01-30T03:54:26;104183.25;;;3.29;100.00
13420;BME280;6781;58.440;15.470;2024-01-30T03:56:53;104175.53;;;3.27;100.00
13420;BME280;6781;58.440;15.470;2024-01-30T03:59:19;104175.56;;;3.29;100.00
13420;BME280;6781;58.440;15.470;2024-01-30T04:01:49;104161.03;;;3.31;100.00
13420;BME280;6781;58.440;15.470;2024-01-30T04:04:17;104155.88;;;3.26;100.00
13420;BME280;6781;58.440;15.470;2024-01-30T04:06:44;104166.97;;;3.23;100.00
13420;BME280;6781;58.440;15.470;2024-01-30T04:09:14;104177.19;;;3.20;100.00
13420;BME280;6781;58.440;15.470;2024-01-30T04:11:41;104191.75;;;3.24;100.00
13420;BME280;6781;58.440;15.470;2024-01-30T04:14:08;104190.03;;;3.23;100.00
13420;BME280;6781;58.440;15.470;2024-01-30T04:16:34;104192.63;;;3.26;100.00
13420;BME280;6781;58.440;15.470;2024-01-30T04:19:01;104188.34;;;3.24;100.00
13420;BME280;6781;58.440;15.470;2024-01-30T04:21:29;104182.34;;;3.23;100.00
13420;BME280;6781;58.440;15.470;2024-01-30T04:23:56;104175.50;;;3.22;100.00
13420;BME280;6781;58.440;15.470;2024-01-30T04:26:23;104185.75;;;3.22;100.00
13420;BME280;6781;58.440;15.470;2024-01-30T04:28:50;104194.31;;;3.24;100.00
13420;BME280;6781;58.440;15.470;2024-01-30T04:31:17;104192.59;;;3.23;100.00
13420;BME280;6781;58.440;15.470;2024-01-30T04:33:43;104190.88;;;3.22;100.00
13420;BME280;6781;58.440;15.470;2024-01-30T04:36:10;104197.72;;;3.20;100.00
13420;BME280;6781;58.440;15.470;2024-01-30T04:38:38;104191.69;;;3.18;100.00
13420;BME280;6781;58.440;15.470;2024-01-30T04:41:05;104198.56;;;3.19;100.00
13420;BME280;6781;58.440;15.470;2024-01-30T04:43:32;104204.53;;;3.18;100.00
13420;BME280;6781;58.440;15.470;2024-01-30T04:45:59;104192.44;;;3.08;100.00
13420;BME280;6781;58.440;15.470;2024-01-30T04:48:26;104196.72;;;3.09;100.00
13420;BME280;6781;58.440;15.470;2024-01-30T04:50:52;104211.22;;;3.06;100.00
13420;BME280;6781;58.440;15.470;2024-01-30T04:53:20;104231.75;;;3.07;100.00
13420;BME280;6781;58.440;15.470;2024-01-30T04:55:48;104241.97;;;3.04;100.00
13420;BME280;6781;58.440;15.470;2024-01-30T04:58:15;104263.38;;;3.08;100.00
13420;BME280;6781;58.440;15.470;2024-01-30T05:00:42;104276.19;;;3.06;100.00
13420;BME280;6781;58.440;15.470;2024-01-30T05:03:09;104293.25;;;3.04;100.00
13420;BME280;6781;58.440;15.470;2024-01-30T05:05:35;104294.13;;;3.05;100.00
13420;BME280;6781;58.440;15.470;2024-01-30T05:08:02;104306.91;;;3.03;100.00
13420;BME280;6781;58.440;15.470;2024-01-30T05:10:29;104316.34;;;3.06;100.00
13420;BME280;6781;58.440;15.470;2024-01-30T05:12:58;104316.38;;;3.07;100.00
13420;BME280;6781;58.440;15.470;2024-01-30T05:15:25;104318.94;;;3.07;100.00
13420;BME280;6781;58.440;15.470;2024-01-30T05:17:51;104323.22;;;3.07;100.00
13420;BME280;6781;58.440;15.470;2024-01-30T05:20:19;104325.75;;;3.05;100.00
13420;BME280;6781;58.440;15.470;2024-01-30T05:22:46;104317.06;;;2.96;100.00
13420;BME280;6781;58.440;15.470;2024-01-30T05:25:12;104331.63;;;2.97;100.00
13420;BME280;6781;58.440;15.470;2024-01-30T05:27:39;104337.66;;;3.00;100.00
13420;BME280;6781;58.440;15.470;2024-01-30T05:30:08;104326.59;;;3.04;100.00
13420;BME280;6781;58.440;15.470;2024-01-30T05:32:35;104328.31;;;3.05;100.00
13420;BME280;6781;58.440;15.470;2024-01-30T05:35:02;104334.38;;;3.10;100.00
13420;BME280;6781;58.440;15.470;2024-01-30T05:37:29;104333.50;;;3.08;100.00
13420;BME280;6781;58.440;15.470;2024-01-30T05:39:56;104323.25;;;3.10;100.00
13420;BME280;6781;58.440;15.470;2024-01-30T05:42:23;104305.28;;;3.08;100.00
13420;BME280;6781;58.440;15.470;2024-01-30T05:44:49;104291.66;;;3.12;100.00
13420;BME280;6781;58.440;15.470;2024-01-30T05:47:18;104279.72;;;3.14;100.00
13420;BME280;6781;58.440;15.470;2024-01-30T05:49:45;104264.31;;;3.14;100.00
13420;BME280;6781;58.440;15.470;2024-01-30T05:52:12;104251.50;;;3.16;100.00
13420;BME280;6781;58.440;15.470;2024-01-30T05:54:40;104242.97;;;3.15;100.00
13420;BME280;6781;58.440;15.470;2024-01-30T05:57:08;104239.56;;;3.16;100.00
13420;BME280;6781;58.440;15.470;2024-01-30T05:59:35;104231.78;;;3.10;100.00
13420;BME280;6781;58.440;15.470;2024-01-30T06:02:03;104223.28;;;3.14;100.00
13420;BME280;6781;58.440;15.470;2024-01-30T06:04:31;104219.03;;;3.15;100.00
13420;BME280;6781;58.440;15.470;2024-01-30T06:06:58;104209.63;;;3.15;100.00
13420;BME280;6781;58.440;15.470;2024-01-30T06:09:27;104205.34;;;3.14;100.00
13420;BME280;6781;58.440;15.470;2024-01-30T06:11:54;104187.38;;;3.14;100.00
13420;BME280;6781;58.440;15.470;2024-01-30T06:14:21;104172.88;;;3.16;100.00
13420;BME280;6781;58.440;15.470;2024-01-30T06:16:47;104158.28;;;3.11;100.00
13420;BME280;6781;58.440;15.470;2024-01-30T06:19:14;104147.16;;;3.09;100.00
13420;BME280;6781;58.440;15.470;2024-01-30T06:21:43;104133.47;;;3.08;100.00
13420;BME280;6781;58.440;15.470;2024-01-30T06:24:10;104127.50;;;3.11;100.00
13420;BME280;6781;58.440;15.470;2024-01-30T06:26:37;104123.25;;;3.11;100.00
13420;BME280;6781;58.440;15.470;2024-01-30T06:29:03;104113.81;;;3.10;100.00
13420;BME280;6781;58.440;15.470;2024-01-30T06:31:30;104115.53;;;3.11;100.00
13420;BME280;6781;58.440;15.470;2024-01-30T06:33:57;104116.38;;;3.09;100.00
13420;BME280;6781;58.440;15.470;2024-01-30T06:36:24;104105.28;;;3.11;100.00
13420;BME280;6781;58.440;15.470;2024-01-30T06:38:52;104113.81;;;3.09;100.00
13420;BME280;6781;58.440;15.470;2024-01-30T06:41:19;104118.09;;;3.08;100.00
13420;BME280;6781;58.440;15.470;2024-01-30T06:43:46;104116.38;;;3.09;100.00
13420;BME280;6781;58.440;15.470;2024-01-30T06:46:12;104119.81;;;3.12;100.00
13420;BME280;6781;58.440;15.470;2024-01-30T06:48:39;104106.94;;;3.06;100.00
13420;BME280;6781;58.440;15.470;2024-01-30T06:51:09;104101.75;;;3.00;100.00
13420;BME280;6781;58.440;15.470;2024-01-30T06:53:36;104111.19;;;3.04;100.00
13420;BME280;6781;58.440;15.470;2024-01-30T06:56:05;104111.22;;;3.06;100.00
13420;BME280;6781;58.440;15.470;2024-01-30T06:58:31;104104.34;;;3.03;100.00
13420;BME280;6781;58.440;15.470;2024-01-30T07:00:58;104116.34;;;3.06;100.00
13420;BME280;6781;58.440;15.470;2024-01-30T07:03:25;104110.31;;;3.02;100.00
13420;BME280;6781;58.440;15.470;2024-01-30T07:05:52;104115.47;;;3.02;100.00
13420;BME280;6781;58.440;15.470;2024-01-30T07:08:18;104104.34;;;3.03;100.00
13420;BME280;6781;58.440;15.470;2024-01-30T07:10:46;104087.19;;;2.96;100.00
13420;BME280;6781;58.440;15.470;2024-01-30T07:13:14;104085.53;;;3.01;100.00
13420;BME280;6781;58.440;15.470;2024-01-30T07:15:41;104064.97;;;2.97;100.00
13420;BME280;6781;58.440;15.470;2024-01-30T07:18:08;104065.00;;;3.00;100.00
13420;BME280;6781;58.440;15.470;2024-01-30T07:20:36;104071.03;;;3.03;100.00
13420;BME280;6781;58.440;15.470;2024-01-30T07:23:03;104065.91;;;3.03;100.00
13420;BME280;6781;58.440;15.470;2024-01-30T07:25:30;104057.31;;;3.01;100.00
13420;BME280;6781;58.440;15.470;2024-01-30T07:27:57;104057.31;;;3.01;100.00
13420;BME280;6781;58.440;15.470;2024-01-30T07:30:25;104053.91;;;2.99;100.00
13420;BME280;6781;58.440;15.470;2024-01-30T07:32:51;104055.63;;;3.00;100.00
13420;BME280;6781;58.440;15.470;2024-01-30T07:35:18;104053.91;;;3.02;100.00
13420;BME280;6781;58.440;15.470;2024-01-30T07:37:45;104057.31;;;3.01;100.00
13420;BME280;6781;58.440;15.470;2024-01-30T07:40:12;104067.63;;;3.04;100.00
13420;BME280;6781;58.440;15.470;2024-01-30T07:42:39;104065.91;;;3.03;100.00
13420;BME280;6781;58.440;15.470;2024-01-30T07:45:06;104058.22;;;3.05;100.00
13420;BME280;6781;58.440;15.470;2024-01-30T07:47:34;104048.81;;;3.05;100.00
13420;BME280;6781;58.440;15.470;2024-01-30T07:50:01;104049.69;;;3.06;100.00
13420;BME280;6781;58.440;15.470;2024-01-30T07:52:28;104048.78;;;3.02;100.00
13420;BME280;6781;58.440;15.470;2024-01-30T07:54:54;104045.34;;;3.00;100.00
13420;BME280;6781;58.440;15.470;2024-01-30T07:57:21;104041.91;;;2.98;100.00
13420;BME280;6781;58.440;15.470;2024-01-30T07:59:48;104047.88;;;2.96;100.00
13420;BME280;6781;58.440;15.470;2024-01-30T08:02:15;104064.91;;;2.89;100.00
13420;BME280;6781;58.440;15.470;2024-01-30T08:04:43;104077.75;;;2.92;100.00
13420;BME280;6781;58.440;15.470;2024-01-30T08:07:13;104085.31;;;2.80;100.00
13420;BME280;6781;58.440;15.470;2024-01-30T08:09:40;104110.03;;;2.75;100.00
13420;BME280;6781;58.440;15.470;2024-01-30T08:12:07;104116.75;;;2.64;100.00
13420;BME280;6781;58.440;15.470;2024-01-30T08:14:33;104136.38;;;2.63;100.00
13420;BME280;6781;58.440;15.470;2024-01-30T08:17:00;104139.75;;;2.59;100.00
13420;BME280;6781;58.440;15.470;2024-01-30T08:19:27;104152.56;;;2.59;100.00
13420;BME280;6781;58.440;15.470;2024-01-30T08:21:55;104161.81;;;2.48;100.00
13420;BME280;6781;58.440;15.470;2024-01-30T08:24:22;104168.50;;;2.37;100.00
13420;BME280;6781;58.440;15.470;2024-01-30T08:26:49;104200.16;;;2.42;100.00
13420;BME280;6781;58.440;15.470;2024-01-30T08:29:15;104209.31;;;2.26;100.00
13420;BME280;6781;58.440;15.470;2024-01-30T08:31:42;104220.38;;;2.22;100.00
13420;BME280;6781;58.440;15.470;2024-01-30T08:34:09;104242.75;;;2.35;100.00
13420;BME280;6781;58.440;15.470;2024-01-30T08:36:36;104252.94;;;2.31;100.00
13420;BME280;6781;58.440;15.470;2024-01-30T08:39:04;104256.34;;;2.31;100.00
13420;BME280;6781;58.440;15.470;2024-01-30T08:41:31;104271.03;;;2.41;100.00
13420;BME280;6781;58.440;15.470;2024-01-30T08:43:58;104286.56;;;2.53;100.00
13420;BME280;6781;58.440;15.470;2024-01-30T08:46:24;104287.34;;;2.48;100.00
13420;BME280;6781;58.440;15.470;2024-01-30T08:48:51;104301.13;;;2.56;100.00
13420;BME280;6781;58.440;15.470;2024-01-30T08:51:18;104298.56;;;2.56;100.00
13420;BME280;6781;58.440;15.470;2024-01-30T08:53:45;104330.31;;;2.66;100.00
13420;BME280;6781;58.440;15.470;2024-01-30T08:56:13;104332.09;;;2.70;100.00
13420;BME280;6781;58.440;15.470;2024-01-30T08:58:41;104335.53;;;2.72;100.00
13420;BME280;6781;58.440;15.470;2024-01-30T09:01:08;104340.63;;;2.69;100.00
13420;BME280;6781;58.440;15.470;2024-01-30T09:03:34;104339.72;;;2.67;100.00
13420;BME280;6781;58.440;15.470;2024-01-30T09:06:01;104337.13;;;2.64;100.00
13420;BME280;6781;58.440;15.470;2024-01-30T09:08:28;104354.28;;;2.68;100.00
13420;BME280;6781;58.440;15.470;2024-01-30T09:10:55;104361.16;;;2.72;100.00
13420;BME280;6781;58.440;15.470;2024-01-30T09:13:23;104355.13;;;2.68;100.00
13420;BME280;6781;58.440;15.470;2024-01-30T09:15:50;104345.66;;;2.63;100.00
13420;BME280;6781;58.440;15.470;2024-01-30T09:18:17;104354.16;;;2.61;100.00
13420;BME280;6781;58.440;15.470;2024-01-30T09:20:44;104355.84;;;2.59;100.00
13420;BME280;6781;58.440;15.470;2024-01-30T09:23:14;104356.81;;;2.66;100.00
13420;BME280;6781;58.440;15.470;2024-01-30T09:25:42;104355.22;;;2.74;100.00
13420;BME280;6781;58.440;15.470;2024-01-30T09:28:09;104366.59;;;2.93;100.00
13420;BME280;6781;58.440;15.470;2024-01-30T09:30:37;104363.28;;;3.00;100.00
13420;BME280;6781;58.440;15.470;2024-01-30T09:33:04;104348.00;;;3.06;100.00
13420;BME280;6781;58.440;15.470;2024-01-30T09:35:31;104345.44;;;3.06;100.00
13420;BME280;6781;58.440;15.470;2024-01-30T09:37:58;104336.09;;;3.11;100.00
13420;BME280;6781;58.440;15.470;2024-01-30T09:40:25;104320.59;;;3.04;100.00
13420;BME280;6781;58.440;15.470;2024-01-30T09:42:53;104314.63;;;3.05;100.00
13420;BME280;6781;58.440;15.470;2024-01-30T09:45:21;104294.88;;;2.96;100.00
13420;BME280;6781;58.440;15.470;2024-01-30T09:47:51;104294.88;;;2.96;100.00
13420;BME280;6781;58.440;15.470;2024-01-30T09:50:19;104300.97;;;3.06;100.00
13420;BME280;6781;58.440;15.470;2024-01-30T09:52:46;104294.16;;;3.08;100.00
13420;BME280;6781;58.440;15.470;2024-01-30T09:55:12;104295.03;;;3.08;100.00
13420;BME280;6781;58.440;15.470;2024-01-30T09:57:41;104306.28;;;3.19;100.00
13420;BME280;6781;58.440;15.470;2024-01-30T10:00:08;104307.13;;;3.18;100.00
13420;BME280;6781;58.440;15.470;2024-01-30T10:02:35;104307.13;;;3.18;100.00
13420;BME280;6781;58.440;15.470;2024-01-30T10:05:03;104307.06;;;3.15;100.00
13420;BME280;6781;58.440;15.470;2024-01-30T10:07:31;104326.78;;;3.19;100.00
13420;BME280;6781;58.440;15.470;2024-01-30T10:09:58;104332.72;;;3.15;100.00
13420;BME280;6781;58.440;15.470;2024-01-30T10:12:25;104343.97;;;3.25;100.00
13420;BME280;6781;58.440;15.470;2024-01-30T10:14:52;104351.72;;;3.30;100.00
13420;BME280;6781;58.440;15.470;2024-01-30T10:17:19;104334.50;;;3.21;100.00
13420;BME280;6781;58.440;15.470;2024-01-30T10:19:46;104335.38;;;3.23;100.00
13420;BME280;6781;58.440;15.470;2024-01-30T10:22:15;104323.41;;;3.22;100.00
13420;BME280;6781;58.440;15.470;2024-01-30T10:24:41;104341.41;;;3.26;100.00
13420;BME280;6781;58.440;15.470;2024-01-30T10:27:10;104341.50;;;3.33;100.00
13420;BME280;6781;58.440;15.470;2024-01-30T10:29:37;104337.16;;;3.29;100.00
13420;BME280;6781;58.440;15.470;2024-01-30T10:32:05;104335.53;;;3.34;100.00
13420;BME280;6781;58.440;15.470;2024-01-30T10:34:32;104341.56;;;3.39;100.00
13420;BME280;6781;58.440;15.470;2024-01-30T10:37:04;104322.69;;;3.34;100.00
13420;BME280;6781;58.440;15.470;2024-01-30T10:39:39;104330.53;;;3.47;100.00
13420;BME280;6781;58.440;15.470;2024-01-30T10:42:06;104333.09;;;3.49;100.00
13420;BME280;6781;58.440;15.470;2024-01-30T10:44:34;104327.09;;;3.47;100.00
13420;BME280;6781;58.440;15.470;2024-01-30T10:47:03;104329.72;;;3.53;100.00
13420;BME280;6781;58.440;15.470;2024-01-30T10:49:33;104319.50;;;3.56;100.00
13420;BME280;6781;58.440;15.470;2024-01-30T10:52:00;104310.94;;;3.57;100.00
13420;BME280;6781;58.440;15.470;2024-01-30T10:54:28;104314.44;;;3.62;100.00
13420;BME280;6781;58.440;15.470;2024-01-30T10:56:56;104323.06;;;3.70;100.00
13420;BME280;6781;58.440;15.470;2024-01-30T10:59:25;104324.88;;;3.77;100.00
13420;BME280;6781;58.440;15.470;2024-01-30T11:01:53;104330.97;;;3.90;100.00
13420;BME280;6781;58.440;15.470;2024-01-30T11:04:19;104318.19;;;3.95;100.00
13420;BME280;6781;58.440;15.470;2024-01-30T11:06:47;104314.81;;;4.00;100.00
13420;BME280;6781;58.440;15.470;2024-01-30T11:09:16;104298.63;;;4.10;100.00
13420;BME280;6781;58.440;15.470;2024-01-30T11:11:48;104275.41;;;3.98;100.00
13420;BME280;6781;58.440;15.470;2024-01-30T11:14:18;104269.38;;;3.93;100.00
13420;BME280;6781;58.440;15.470;2024-01-30T11:16:49;104257.38;;;3.92;100.00
13420;BME280;6781;58.440;15.470;2024-01-30T11:19:16;104267.69;;;3.97;100.00
13420;BME280;6781;58.440;15.470;2024-01-30T11:21:49;104261.72;;;3.98;100.00
13420;BME280;6781;58.440;15.470;2024-01-30T11:24:19;104263.47;;;4.05;100.00
13420;BME280;6781;58.440;15.470;2024-01-30T11:26:47;104271.25;;;4.12;100.00
13420;BME280;6781;58.440;15.470;2024-01-30T11:29:15;104274.72;;;4.19;100.00
13420;BME280;6781;58.440;15.470;2024-01-30T11:31:51;104266.16;;;4.18;100.00
13420;BME280;6781;58.440;15.470;2024-01-30T11:34:18;104270.50;;;4.27;100.00
13420;BME280;6781;58.440;15.470;2024-01-30T11:36:45;104270.56;;;4.36;100.00
13420;BME280;6781;58.440;15.470;2024-01-30T11:39:17;104260.31;;;4.39;100.00
13420;BME280;6781;58.440;15.470;2024-01-30T11:41:47;104261.16;;;4.35;100.00
13420;BME280;6781;58.440;15.470;2024-01-30T11:44:16;104266.31;;;4.41;100.00
13420;BME280;6781;58.440;15.470;2024-01-30T11:46:43;104256.88;;;4.36;100.00
13420;BME280;6781;58.440;15.470;2024-01-30T11:49:10;104264.59;;;4.37;100.00
13420;BME280;6781;58.440;15.470;2024-01-30T11:51:36;104260.34;;;4.45;100.00
13420;BME280;6781;58.440;15.470;2024-01-30T11:54:03;104253.47;;;4.43;100.00
13420;BME280;6781;58.440;15.470;2024-01-30T11:56:30;104251.75;;;4.40;100.00
13420;BME280;6781;58.440;15.470;2024-01-30T11:58:57;104251.78;;;4.46;100.00
13420;BME280;6781;58.440;15.470;2024-01-30T12:01:27;104240.59;;;4.38;100.00
13420;BME280;6781;58.440;15.470;2024-01-30T12:03:54;104233.75;;;4.39;100.00
13420;BME280;6781;58.440;15.470;2024-01-30T12:06:22;104226.88;;;4.36;100.00
13420;BME280;6781;58.440;15.470;2024-01-30T12:08:58;104243.19;;;4.41;100.00
13420;BME280;6781;58.440;15.470;2024-01-30T12:11:25;104234.56;;;4.30;100.00
13420;BME280;6781;58.440;15.470;2024-01-30T12:13:52;104241.44;;;4.37;100.00
13420;BME280;6781;58.440;15.470;2024-01-30T12:16:19;104241.44;;;4.34;100.00
13420;BME280;6781;58.440;15.470;2024-01-30T12:18:48;104240.56;;;4.34;100.00
13420;BME280;6781;58.440;15.470;2024-01-30T12:21:16;104235.34;;;4.21;100.00
13420;BME280;6781;58.440;15.470;2024-01-30T12:23:43;104236.13;;;4.11;100.00
13420;BME280;6781;58.440;15.470;2024-01-30T12:26:10;104230.94;;;4.04;100.00
13420;BME280;6781;58.440;15.470;2024-01-30T12:28:37;104227.31;;;3.77;100.00
13420;BME280;6781;58.440;15.470;2024-01-30T12:31:13;104237.59;;;3.80;100.00
13420;BME280;6781;58.440;15.470;2024-01-30T12:33:40;104247.91;;;3.86;100.00
13420;BME280;6781;58.440;15.470;2024-01-30T12:36:08;104259.91;;;3.87;100.00
13420;BME280;6781;58.440;15.470;2024-01-30T12:38:35;104253.03;;;3.83;100.00
13420;BME280;6781;58.440;15.470;2024-01-30T12:41:02;104254.63;;;3.69;100.00
13420;BME280;6781;58.440;15.470;2024-01-30T12:43:29;104269.22;;;3.76;100.00
13420;BME280;6781;58.440;15.470;2024-01-30T12:45:56;104264.81;;;3.63;100.00
13420;BME280;6781;58.440;15.470;2024-01-30T12:48:23;104267.31;;;3.57;100.00
13420;BME280;6781;58.440;15.470;2024-01-30T12:50:50;104269.88;;;3.57;100.00
13420;BME280;6781;58.440;15.470;2024-01-30T12:53:19;104280.25;;;3.66;100.00